createdAt,value
2022-10-06T00:01:05.179Z,4.40
2022-10-06T00:03:48.846Z,4.30
2022-10-06T00:06:21.583Z,3.10
2022-10-06T00:08:54.033Z,4.10
2022-10-06T00:11:26.381Z,4.20
2022-10-06T00:13:58.767Z,4.40
2022-10-06T00:16:30.919Z,4.10
2022-10-06T00:19:03.165Z,3.70
2022-10-06T00:21:35.476Z,4.00
2022-10-06T00:24:08.254Z,4.10
2022-10-06T00:26:42.597Z,4.10
2022-10-06T00:29:14.916Z,3.80
2022-10-06T00:31:47.116Z,3.60
2022-10-06T00:34:19.568Z,4.00
2022-10-06T00:36:52.064Z,4.30
2022-10-06T00:39:24.685Z,4.40
2022-10-06T00:41:56.992Z,4.10
2022-10-06T00:44:29.402Z,3.50
2022-10-06T00:47:03.353Z,4.80
2022-10-06T00:49:39.823Z,3.80
2022-10-06T00:52:18.236Z,3.70
2022-10-06T00:54:50.985Z,4.20
2022-10-06T00:57:23.936Z,4.00
2022-10-06T00:59:57.296Z,4.70
2022-10-06T01:02:35.634Z,4.80
2022-10-06T01:05:11.064Z,4.80
2022-10-06T01:07:43.490Z,5.30
2022-10-06T01:10:15.933Z,5.30
2022-10-06T01:12:52.228Z,5.00
2022-10-06T01:15:26.163Z,4.90
2022-10-06T01:18:03.348Z,5.80
2022-10-06T01:20:38.572Z,3.70
2022-10-06T01:23:12.310Z,5.20
2022-10-06T01:25:47.345Z,5.10
2022-10-06T01:28:21.430Z,4.90
2022-10-06T01:31:01.811Z,4.80
2022-10-06T01:33:35.802Z,4.40
2022-10-06T01:36:09.214Z,4.80
2022-10-06T01:38:41.816Z,4.40
2022-10-06T01:41:16.711Z,4.70
2022-10-06T01:43:49.015Z,4.50
2022-10-06T01:46:23.886Z,4.60
2022-10-06T01:48:56.238Z,4.60
2022-10-06T01:51:29.402Z,4.00
2022-10-06T01:54:01.666Z,4.30
2022-10-06T01:56:34.132Z,4.10
2022-10-06T01:59:07.092Z,3.90
2022-10-06T02:01:41.423Z,4.30
2022-10-06T02:04:13.573Z,3.90
2022-10-06T02:06:47.630Z,4.50
2022-10-06T02:09:19.817Z,4.30
2022-10-06T02:11:52.158Z,4.70
2022-10-06T02:14:24.804Z,4.70
2022-10-06T02:16:56.902Z,4.50
2022-10-06T02:19:29.477Z,4.30
2022-10-06T02:22:04.069Z,4.70
2022-10-06T02:24:36.393Z,4.10
2022-10-06T02:27:11.536Z,4.40
2022-10-06T02:29:44.903Z,5.00
2022-10-06T02:32:20.971Z,4.50
2022-10-06T02:34:57.175Z,4.80
2022-10-06T02:37:29.609Z,5.00
2022-10-06T02:40:06.144Z,4.70
2022-10-06T02:42:40.172Z,4.80
2022-10-06T02:45:13.535Z,5.10
2022-10-06T02:47:46.571Z,5.10
2022-10-06T02:50:19.406Z,4.80
2022-10-06T02:52:51.736Z,5.10
2022-10-06T02:55:26.284Z,5.10
2022-10-06T02:57:58.466Z,5.20
2022-10-06T03:00:30.984Z,4.20
2022-10-06T03:03:03.639Z,4.70
2022-10-06T03:05:36.063Z,4.60
2022-10-06T03:08:11.589Z,5.60
2022-10-06T03:10:43.775Z,5.20
2022-10-06T03:13:16.116Z,5.60
2022-10-06T03:15:48.472Z,5.50
2022-10-06T03:18:21.274Z,5.10
2022-10-06T03:20:54.159Z,5.40
2022-10-06T03:23:26.798Z,6.00
2022-10-06T03:26:02.079Z,5.30
2022-10-06T03:28:35.895Z,5.40
2022-10-06T03:31:09.087Z,5.90
2022-10-06T03:33:41.870Z,5.20
2022-10-06T03:36:19.159Z,7.90
2022-10-06T03:38:52.145Z,6.60
2022-10-06T03:41:28.129Z,6.00
2022-10-06T03:44:01.584Z,5.90
2022-10-06T03:46:38.315Z,5.20
2022-10-06T03:49:12.105Z,5.60
2022-10-06T03:51:49.398Z,5.60
2022-10-06T03:56:58.233Z,5.40
2022-10-06T03:59:34.414Z,5.50
2022-10-06T04:02:11.453Z,6.90
2022-10-06T04:04:43.838Z,6.00
2022-10-06T04:07:19.535Z,5.40
2022-10-06T04:09:52.243Z,5.90
2022-10-06T04:12:24.921Z,5.20
2022-10-06T04:15:00.289Z,5.70
2022-10-06T04:17:33.599Z,5.40
2022-10-06T04:20:09.939Z,6.30
2022-10-06T04:22:42.193Z,5.70
2022-10-06T04:25:14.615Z,5.50
2022-10-06T04:27:47.068Z,5.70
2022-10-06T04:30:21.094Z,5.80
2022-10-06T04:32:53.708Z,5.70
2022-10-06T04:35:27.528Z,5.50
2022-10-06T04:38:00.830Z,6.10
2022-10-06T04:40:33.470Z,5.20
2022-10-06T04:43:06.024Z,5.60
2022-10-06T04:45:38.848Z,5.80
2022-10-06T04:48:11.204Z,6.10
2022-10-06T04:50:44.840Z,5.70
2022-10-06T04:53:19.719Z,6.20
2022-10-06T04:56:01.209Z,6.20
2022-10-06T04:58:36.595Z,6.20
2022-10-06T05:01:17.115Z,6.30
2022-10-06T05:03:51.197Z,5.90
2022-10-06T05:06:25.817Z,5.90
2022-10-06T05:09:00.317Z,5.50
2022-10-06T05:11:34.469Z,6.40
2022-10-06T05:14:09.328Z,5.70
2022-10-06T05:16:44.852Z,6.40
2022-10-06T05:19:18.211Z,6.30
2022-10-06T05:21:50.476Z,6.90
2022-10-06T05:24:26.777Z,6.40
2022-10-06T05:27:02.176Z,5.30
2022-10-06T05:29:35.456Z,6.70
2022-10-06T05:32:10.229Z,6.40
2022-10-06T05:34:44.452Z,6.70
2022-10-06T05:37:16.622Z,6.00
2022-10-06T05:39:48.896Z,6.80
2022-10-06T05:42:26.196Z,6.80
2022-10-06T05:45:01.335Z,6.50
2022-10-06T05:47:33.957Z,6.10
2022-10-06T05:50:07.869Z,6.40
2022-10-06T05:52:40.614Z,6.20
2022-10-06T05:55:13.409Z,6.40
2022-10-06T05:57:45.723Z,6.50
2022-10-06T06:00:22.396Z,6.60
2022-10-06T06:02:55.080Z,6.70
2022-10-06T06:05:27.243Z,6.30
2022-10-06T06:07:59.546Z,6.60
2022-10-06T06:10:32.217Z,6.30
2022-10-06T06:13:04.336Z,6.30
2022-10-06T06:16:04.456Z,5.50
2022-10-06T06:18:39.352Z,5.40
2022-10-06T06:21:15.917Z,5.20
2022-10-06T06:23:51.367Z,6.20
2022-10-06T06:26:25.322Z,5.40
2022-10-06T06:29:04.154Z,5.20
2022-10-06T06:31:40.358Z,4.90
2022-10-06T06:34:13.080Z,5.60
2022-10-06T06:36:54.585Z,6.10
2022-10-06T06:39:27.950Z,4.90
2022-10-06T06:42:02.293Z,4.80
2022-10-06T06:44:46.744Z,4.70
2022-10-06T06:57:59.455Z,4.70
2022-10-06T07:04:58.359Z,5.30
2022-10-06T07:08:21.395Z,4.30
2022-10-06T07:10:55.642Z,4.20
2022-10-06T07:13:57.794Z,4.60
2022-10-06T07:29:24.384Z,4.20
2022-10-06T07:32:57.031Z,4.50
2022-10-06T07:42:58.348Z,3.80
2022-10-06T07:50:50.641Z,4.90
2022-10-06T07:58:24.339Z,4.20
2022-10-06T08:25:08.248Z,3.40
2022-10-06T08:27:44.677Z,2.60
2022-10-06T08:39:03.598Z,3.60
2022-10-06T08:42:18.640Z,4.40
2022-10-06T08:49:22.038Z,3.90
2022-10-06T08:56:48.831Z,6.20
2022-10-06T08:59:22.539Z,3.90
2022-10-06T09:11:25.935Z,4.90
2022-10-06T09:15:07.977Z,3.30
2022-10-06T09:31:33.038Z,3.90
2022-10-06T09:42:50.168Z,2.60
2022-10-06T09:49:32.506Z,3.10
2022-10-06T09:52:11.828Z,2.70
2022-10-06T09:59:07.354Z,2.70
2022-10-06T10:01:41.710Z,2.80
2022-10-06T10:09:38.527Z,3.00
2022-10-06T10:16:43.761Z,3.00
2022-10-06T10:24:27.265Z,3.50
2022-10-06T10:31:59.163Z,3.20
2022-10-06T10:48:30.612Z,3.60
2022-10-06T10:55:30.912Z,3.40
2022-10-06T10:58:14.897Z,3.60
2022-10-06T11:00:51.525Z,4.90
2022-10-06T11:03:23.700Z,4.10
2022-10-06T11:06:15.847Z,3.50
2022-10-06T11:08:57.301Z,3.90
2022-10-06T11:11:51.322Z,3.20
2022-10-06T11:15:13.732Z,2.90
2022-10-06T11:18:26.226Z,3.80
2022-10-06T11:21:04.085Z,3.40
2022-10-06T11:23:48.768Z,3.80
2022-10-06T11:26:32.646Z,5.20
2022-10-06T11:29:19.114Z,5.20
2022-10-06T11:32:02.126Z,4.10
2022-10-06T11:34:34.460Z,4.80
2022-10-06T11:37:17.812Z,4.20
2022-10-06T11:39:56.645Z,4.10
2022-10-06T11:42:37.729Z,3.60
2022-10-06T11:45:16.475Z,4.70
2022-10-06T11:48:11.036Z,4.20
2022-10-06T11:50:45.285Z,3.00
2022-10-06T11:53:39.388Z,3.70
2022-10-06T11:59:24.533Z,3.80
2022-10-06T12:02:03.553Z,5.40
2022-10-06T12:04:36.114Z,4.50
2022-10-06T12:07:11.053Z,5.50
2022-10-06T12:10:15.577Z,4.70
2022-10-06T12:13:06.565Z,3.70
2022-10-06T12:19:27.142Z,5.30
2022-10-06T12:22:11.232Z,5.20
2022-10-06T12:24:47.716Z,6.80
2022-10-06T12:27:33.514Z,4.30
2022-10-06T12:30:19.460Z,4.10
2022-10-06T12:32:57.435Z,5.50
2022-10-06T12:35:34.783Z,5.10
2022-10-06T12:38:07.844Z,4.40
2022-10-06T12:40:51.342Z,5.10
2022-10-06T12:43:59.828Z,6.90
2022-10-06T12:46:49.465Z,7.10
2022-10-06T12:49:49.913Z,5.20
2022-10-06T12:52:46.201Z,5.70
2022-10-06T12:55:49.252Z,6.00
2022-10-06T12:58:28.606Z,7.20
2022-10-06T13:01:05.862Z,7.50
2022-10-06T13:03:38.925Z,6.50
2022-10-06T13:06:11.938Z,34.50
2022-10-06T13:08:44.126Z,49.90
2022-10-06T13:11:23.354Z,75.80
2022-10-06T13:13:59.836Z,93.60
2022-10-06T13:16:39.402Z,88.90
2022-10-06T13:19:19.687Z,55.40
2022-10-06T13:21:53.153Z,36.10
2022-10-06T13:24:28.718Z,20.90
2022-10-06T13:27:02.971Z,21.80
2022-10-06T13:29:35.641Z,13.70
2022-10-06T13:32:19.430Z,6.00
2022-10-06T13:34:51.652Z,4.80
2022-10-06T13:37:23.836Z,32.70
2022-10-06T13:39:56.103Z,28.80
2022-10-06T13:42:29.106Z,18.40
2022-10-06T13:45:06.980Z,9.70
2022-10-06T13:47:40.381Z,5.40
2022-10-06T13:50:20.198Z,5.80
2022-10-06T13:52:52.418Z,4.90
2022-10-06T13:55:26.528Z,5.60
2022-10-06T13:58:13.859Z,5.60
2022-10-06T14:00:56.436Z,6.30
2022-10-06T14:06:19.080Z,7.00
2022-10-06T14:08:55.132Z,6.10
2022-10-06T14:11:32.301Z,5.10
2022-10-06T14:14:07.806Z,101.00
2022-10-06T14:22:34.353Z,14.10
2022-10-06T14:29:25.258Z,9.20
2022-10-06T14:31:57.321Z,6.40
2022-10-06T14:38:17.927Z,5.50
2022-10-06T14:46:04.043Z,6.00
2022-10-06T14:49:27.748Z,4.70
2022-10-06T14:52:00.243Z,4.60
2022-10-06T14:54:47.552Z,4.00
2022-10-06T15:10:19.984Z,4.50
2022-10-06T15:12:58.700Z,4.80
2022-10-06T15:15:34.170Z,20.30
2022-10-06T15:18:57.154Z,6.90
2022-10-06T15:30:15.584Z,41.00
2022-10-06T15:32:55.633Z,19.10
2022-10-06T15:35:27.714Z,10.50
2022-10-06T15:38:06.702Z,8.40
2022-10-06T15:40:38.885Z,6.80
2022-10-06T15:48:09.451Z,9.00
2022-10-06T15:50:42.148Z,9.10
2022-10-06T15:53:23.582Z,8.00
2022-10-06T15:56:44.536Z,9.40
2022-10-06T15:59:24.516Z,12.80
2022-10-06T16:01:58.417Z,15.20
2022-10-06T16:05:02.252Z,14.40
2022-10-06T16:16:11.801Z,169.20
2022-10-06T16:18:44.000Z,264.30
2022-10-06T16:21:33.366Z,209.30
2022-10-06T16:24:11.938Z,458.20
2022-10-06T16:26:44.357Z,104.00
2022-10-06T16:29:17.037Z,33.90
2022-10-06T16:32:28.572Z,20.50
2022-10-06T16:39:42.790Z,12.10
2022-10-06T16:46:47.346Z,9.10
2022-10-06T16:49:19.960Z,8.50
2022-10-06T16:51:59.064Z,9.80
2022-10-06T16:54:43.630Z,9.70
2022-10-06T16:57:15.807Z,10.20
2022-10-06T17:08:18.876Z,15.50
2022-10-06T17:11:47.845Z,24.20
2022-10-06T17:18:55.771Z,39.00
2022-10-06T17:25:12.926Z,29.80
2022-10-06T17:27:45.051Z,26.00
2022-10-06T17:30:17.369Z,19.20
2022-10-06T17:32:57.058Z,16.40
2022-10-06T17:35:46.788Z,15.30
2022-10-06T17:47:30.882Z,16.00
2022-10-06T17:54:07.550Z,19.50
2022-10-06T18:01:36.722Z,24.30
2022-10-06T18:13:53.195Z,37.70
2022-10-06T18:21:15.656Z,24.80
2022-10-06T18:23:55.148Z,21.80
2022-10-06T18:26:29.935Z,18.80
2022-10-06T18:29:04.485Z,16.50
2022-10-06T18:49:36.564Z,17.10
2022-10-06T18:56:41.651Z,16.20
2022-10-06T18:59:16.461Z,13.90
2022-10-06T19:02:38.901Z,12.70
2022-10-06T19:05:12.058Z,14.20
2022-10-06T19:07:44.710Z,13.00
2022-10-06T19:10:17.911Z,13.30
2022-10-06T19:12:49.887Z,12.50
2022-10-06T19:15:21.965Z,12.60
2022-10-06T19:17:53.976Z,12.00
2022-10-06T19:20:26.412Z,11.50
2022-10-06T19:22:58.749Z,11.20
2022-10-06T19:25:33.370Z,12.60
2022-10-06T19:28:05.901Z,14.00
2022-10-06T19:30:38.053Z,10.30
2022-10-06T19:33:10.312Z,10.10
2022-10-06T19:35:51.313Z,9.30
2022-10-06T19:38:23.463Z,10.60
2022-10-06T19:41:15.845Z,10.40
2022-10-06T19:43:47.878Z,9.80
2022-10-06T19:46:20.150Z,10.90
2022-10-06T19:48:58.614Z,10.40
2022-10-06T19:51:30.674Z,10.80
2022-10-06T19:54:03.736Z,14.40
2022-10-06T19:56:35.912Z,13.60
2022-10-06T19:59:09.107Z,12.20
2022-10-06T20:01:42.338Z,11.40
2022-10-06T20:05:00.036Z,10.70
2022-10-06T20:07:32.099Z,12.70
2022-10-06T20:10:04.419Z,12.00
2022-10-06T20:13:23.528Z,12.80
2022-10-06T20:15:55.645Z,13.30
2022-10-06T20:18:29.957Z,13.30
2022-10-06T20:21:02.003Z,14.90
2022-10-06T20:24:18.496Z,14.80
2022-10-06T20:26:52.359Z,16.50
2022-10-06T20:29:26.478Z,18.00
2022-10-06T20:31:59.718Z,15.80
2022-10-06T20:34:32.916Z,15.10
2022-10-06T20:37:06.706Z,17.50
2022-10-06T20:39:56.734Z,14.70
2022-10-06T20:43:04.332Z,11.20
2022-10-06T20:46:08.787Z,10.40
2022-10-06T20:48:40.835Z,10.40
2022-10-06T20:51:16.231Z,9.40
2022-10-06T20:53:48.605Z,11.30
2022-10-06T20:56:21.372Z,9.90
2022-10-06T20:58:53.631Z,9.00
2022-10-06T21:01:25.946Z,8.70
2022-10-06T21:03:57.932Z,8.60
2022-10-06T21:06:30.335Z,7.30
2022-10-06T21:09:03.834Z,8.40
2022-10-06T21:11:36.234Z,8.90
2022-10-06T21:14:12.709Z,6.80
2022-10-06T21:16:46.537Z,7.20
2022-10-06T21:19:20.067Z,7.00
2022-10-06T21:21:55.903Z,7.30
2022-10-06T21:24:27.918Z,7.20
2022-10-06T21:27:00.422Z,7.90
2022-10-06T21:29:32.450Z,7.80
2022-10-06T21:32:05.272Z,7.90
2022-10-06T21:34:37.456Z,8.30
2022-10-06T21:37:10.261Z,12.50
2022-10-06T21:39:45.581Z,10.70
2022-10-06T21:42:19.401Z,8.80
2022-10-06T21:44:51.751Z,8.80
2022-10-06T21:47:23.811Z,8.80
2022-10-06T21:49:55.977Z,10.20
2022-10-06T21:52:28.044Z,8.30
2022-10-06T21:55:00.228Z,7.20
2022-10-06T21:57:32.405Z,6.50
2022-10-06T22:00:05.153Z,6.00
2022-10-06T22:02:45.080Z,6.80
2022-10-06T22:05:17.518Z,6.10
2022-10-06T22:07:49.556Z,6.20
2022-10-06T22:10:21.503Z,5.30
2022-10-06T22:12:54.558Z,5.80
2022-10-06T22:15:26.540Z,6.20
2022-10-06T22:17:58.744Z,5.00
2022-10-06T22:20:32.137Z,4.80
2022-10-06T22:23:05.125Z,4.90
2022-10-06T22:25:37.536Z,5.00
2022-10-06T22:28:10.491Z,4.80
2022-10-06T22:30:42.571Z,4.60
2022-10-06T22:33:14.658Z,4.10
2022-10-06T22:35:53.205Z,4.60
2022-10-06T22:38:25.776Z,4.70
2022-10-06T22:41:01.940Z,4.80
2022-10-06T22:43:34.430Z,4.40
2022-10-06T22:46:08.046Z,4.90
2022-10-06T22:48:40.693Z,4.80
2022-10-06T22:51:12.850Z,5.40
2022-10-06T22:53:45.358Z,4.60
2022-10-06T22:56:17.786Z,4.40
2022-10-06T22:58:49.998Z,5.70
2022-10-06T23:01:22.305Z,5.80
2022-10-06T23:03:56.248Z,4.50
2022-10-06T23:06:29.846Z,5.20
2022-10-06T23:09:03.566Z,5.80
2022-10-06T23:11:35.591Z,7.70
2022-10-06T23:14:07.583Z,10.30
2022-10-06T23:16:39.813Z,13.20
2022-10-06T23:19:13.219Z,14.20
2022-10-06T23:21:45.246Z,15.20
2022-10-06T23:24:17.328Z,15.30
2022-10-06T23:26:49.472Z,15.70
2022-10-06T23:29:21.606Z,14.90
2022-10-06T23:31:53.910Z,15.00
2022-10-06T23:34:26.065Z,15.30
2022-10-06T23:36:58.015Z,15.00
2022-10-06T23:39:30.064Z,14.70
2022-10-06T23:42:02.269Z,15.80
2022-10-06T23:44:34.469Z,14.80
2022-10-06T23:47:06.836Z,15.20
2022-10-06T23:49:41.431Z,14.90
2022-10-06T23:52:16.572Z,16.20
2022-10-06T23:54:49.687Z,18.60
2022-10-06T23:57:22.086Z,18.50
2022-10-06T23:59:54.199Z,18.10
